createdAt,value
2023-04-16T00:01:05.149Z,23.53
2023-04-16T00:03:34.672Z,23.52
2023-04-16T00:06:03.403Z,23.51
2023-04-16T00:08:31.803Z,23.50
2023-04-16T00:11:00.265Z,23.49
2023-04-16T00:13:28.542Z,23.47
2023-04-16T00:15:56.938Z,23.47
2023-04-16T00:18:25.502Z,23.46
2023-04-16T00:20:55.011Z,23.45
2023-04-16T00:23:25.335Z,23.45
2023-04-16T00:25:54.126Z,23.46
2023-04-16T00:28:22.293Z,23.45
2023-04-16T00:30:50.689Z,23.44
2023-04-16T00:33:19.092Z,23.43
2023-04-16T00:35:48.254Z,23.41
2023-04-16T00:38:16.955Z,23.42
2023-04-16T00:40:45.347Z,23.41
2023-04-16T00:43:23.079Z,23.40
2023-04-16T00:45:52.465Z,23.44
2023-04-16T00:48:21.418Z,23.44
2023-04-16T00:50:49.594Z,23.43
2023-04-16T00:53:17.998Z,23.40
2023-04-16T00:55:46.451Z,23.38
2023-04-16T00:58:14.936Z,23.37
2023-04-16T01:00:43.235Z,23.36
2023-04-16T01:03:11.702Z,23.35
2023-04-16T01:05:40.583Z,23.35
2023-04-16T01:08:20.529Z,23.35
2023-04-16T01:10:48.728Z,23.39
2023-04-16T01:13:17.092Z,23.37
2023-04-16T01:15:45.790Z,23.32
2023-04-16T01:18:19.306Z,23.31
2023-04-16T01:20:48.911Z,23.33
2023-04-16T01:23:18.907Z,23.31
2023-04-16T01:25:47.802Z,23.29
2023-04-16T01:28:16.177Z,23.28
2023-04-16T01:30:44.864Z,23.27
2023-04-16T01:33:14.267Z,23.26
2023-04-16T01:35:42.565Z,23.26
2023-04-16T01:38:11.251Z,23.25
2023-04-16T01:40:39.709Z,23.26
2023-04-16T01:43:08.188Z,23.25
2023-04-16T01:45:36.578Z,23.24
2023-04-16T01:48:05.603Z,23.22
2023-04-16T01:50:33.945Z,23.21
2023-04-16T01:53:05.349Z,23.21
2023-04-16T01:55:34.695Z,23.22
2023-04-16T01:58:02.969Z,23.22
2023-04-16T02:00:31.408Z,23.20
2023-04-16T02:03:00.032Z,23.19
2023-04-16T02:05:28.624Z,23.18
2023-04-16T02:07:57.003Z,23.19
2023-04-16T02:10:25.484Z,23.18
2023-04-16T02:12:53.968Z,23.16
2023-04-16T02:15:23.255Z,23.15
2023-04-16T02:17:57.100Z,23.15
2023-04-16T02:20:25.964Z,23.18
2023-04-16T02:22:54.340Z,23.17
2023-04-16T02:25:23.434Z,23.16
2023-04-16T02:27:51.814Z,23.16
2023-04-16T02:30:20.401Z,23.15
2023-04-16T02:32:50.101Z,23.16
2023-04-16T02:35:18.810Z,23.16
2023-04-16T02:37:46.972Z,23.15
2023-04-16T02:40:15.861Z,23.13
2023-04-16T02:42:44.154Z,23.12
2023-04-16T02:45:13.075Z,23.11
2023-04-16T02:47:41.552Z,23.11
2023-04-16T02:50:10.714Z,23.11
2023-04-16T02:52:38.884Z,23.10
2023-04-16T02:55:07.983Z,23.09
2023-04-16T02:57:36.769Z,23.09
2023-04-16T03:00:05.702Z,23.10
2023-04-16T03:02:34.065Z,23.09
2023-04-16T03:05:03.647Z,23.09
2023-04-16T03:07:31.823Z,23.08
2023-04-16T03:10:00.202Z,23.07
2023-04-16T03:12:28.591Z,23.06
2023-04-16T03:14:57.273Z,23.05
2023-04-16T03:17:25.689Z,23.05
2023-04-16T03:19:54.129Z,23.05
2023-04-16T03:22:22.618Z,23.04
2023-04-16T03:24:51.132Z,23.04
2023-04-16T03:27:19.470Z,23.03
2023-04-16T03:29:47.755Z,23.03
2023-04-16T03:32:16.138Z,23.03
2023-04-16T03:34:44.715Z,23.02
2023-04-16T03:37:13.033Z,23.01
2023-04-16T03:39:41.912Z,23.01
2023-04-16T03:42:10.158Z,23.01
2023-04-16T03:44:38.535Z,23.02
2023-04-16T03:47:07.136Z,23.00
2023-04-16T03:49:35.501Z,23.00
2023-04-16T03:52:03.885Z,23.00
2023-04-16T03:54:32.265Z,22.99
2023-04-16T03:57:01.355Z,22.98
2023-04-16T03:59:29.838Z,22.98
2023-04-16T04:01:58.265Z,22.97
2023-04-16T04:04:26.814Z,22.98
2023-04-16T04:06:55.300Z,22.98
2023-04-16T04:09:23.686Z,22.97
2023-04-16T04:11:52.252Z,22.97
2023-04-16T04:14:20.531Z,22.97
2023-04-16T04:16:48.933Z,22.98
2023-04-16T04:19:17.386Z,22.99
2023-04-16T04:21:45.874Z,22.98
2023-04-16T04:24:14.166Z,22.96
2023-04-16T04:26:42.525Z,22.96
2023-04-16T04:29:11.023Z,22.95
2023-04-16T04:31:39.606Z,22.95
2023-04-16T04:34:11.244Z,22.96
2023-04-16T04:36:39.628Z,22.98
2023-04-16T04:39:08.146Z,22.98
2023-04-16T04:41:37.014Z,22.98
2023-04-16T04:44:05.789Z,22.97
2023-04-16T04:46:34.164Z,22.97
2023-04-16T04:49:02.562Z,22.98
2023-04-16T04:51:31.644Z,22.98
2023-04-16T04:54:00.050Z,23.00
2023-04-16T04:56:28.508Z,23.00
2023-04-16T04:58:57.195Z,23.00
2023-04-16T05:01:25.960Z,23.00
2023-04-16T05:03:54.512Z,23.00
2023-04-16T05:06:23.183Z,23.03
2023-04-16T05:08:51.530Z,23.05
2023-04-16T05:11:19.910Z,23.04
2023-04-16T05:13:48.521Z,23.05
2023-04-16T05:16:16.915Z,23.04
2023-04-16T05:18:45.357Z,23.03
2023-04-16T05:21:13.662Z,23.04
2023-04-16T05:23:42.116Z,23.05
2023-04-16T05:26:10.593Z,23.05
2023-04-16T05:28:38.792Z,23.05
2023-04-16T05:31:07.195Z,23.05
2023-04-16T05:33:35.730Z,23.05
2023-04-16T05:36:04.628Z,23.06
2023-04-16T05:38:32.909Z,23.05
2023-04-16T05:41:01.375Z,23.06
2023-04-16T05:43:29.670Z,23.06
2023-04-16T05:45:58.075Z,23.07
2023-04-16T05:48:26.619Z,23.07
2023-04-16T05:50:55.018Z,23.07
2023-04-16T05:53:24.086Z,23.18
2023-04-16T05:55:52.479Z,23.16
2023-04-16T05:58:20.956Z,23.15
2023-04-16T06:00:49.331Z,23.14
2023-04-16T06:03:17.789Z,23.14
2023-04-16T06:05:46.374Z,23.15
2023-04-16T06:08:14.945Z,23.15
2023-04-16T06:10:43.399Z,23.16
2023-04-16T06:13:11.849Z,23.18
2023-04-16T06:15:40.269Z,23.21
2023-04-16T06:18:08.751Z,23.21
2023-04-16T06:20:37.099Z,23.20
2023-04-16T06:23:05.776Z,23.22
2023-04-16T06:25:34.162Z,23.26
2023-04-16T06:28:02.562Z,23.28
2023-04-16T06:30:31.225Z,23.28
2023-04-16T06:32:59.820Z,23.27
2023-04-16T06:35:28.203Z,23.28
2023-04-16T06:37:57.179Z,23.30
2023-04-16T06:40:28.421Z,23.28
2023-04-16T06:42:56.907Z,23.31
2023-04-16T06:45:28.361Z,23.32
2023-04-16T06:47:59.955Z,23.32
2023-04-16T06:50:29.262Z,23.33
2023-04-16T06:53:01.071Z,23.35
2023-04-16T06:55:29.351Z,23.37
2023-04-16T06:57:57.656Z,23.37
2023-04-16T07:00:27.331Z,23.37
2023-04-16T07:02:58.643Z,23.37
2023-04-16T07:05:27.893Z,23.39
2023-04-16T07:07:59.742Z,23.38
2023-04-16T07:10:28.116Z,23.39
2023-04-16T07:12:57.218Z,23.38
2023-04-16T07:15:25.606Z,23.38
2023-04-16T07:18:00.137Z,23.39
2023-04-16T07:20:29.017Z,23.40
2023-04-16T07:22:59.937Z,23.40
2023-04-16T07:25:28.651Z,23.39
2023-04-16T07:27:57.126Z,23.44
2023-04-16T07:30:34.877Z,23.68
2023-04-16T07:33:06.238Z,23.57
2023-04-16T07:35:34.556Z,23.51
2023-04-16T07:38:06.455Z,23.45
2023-04-16T07:40:34.682Z,23.42
2023-04-16T07:43:03.076Z,23.40
2023-04-16T07:45:31.479Z,23.37
2023-04-16T07:47:59.961Z,23.35
2023-04-16T07:50:28.526Z,23.36
2023-04-16T07:52:56.920Z,23.37
2023-04-16T07:55:25.642Z,23.38
2023-04-16T07:57:54.262Z,23.39
2023-04-16T08:00:22.828Z,23.44
2023-04-16T08:02:51.453Z,23.45
2023-04-16T08:05:20.209Z,23.43
2023-04-16T08:07:48.808Z,23.43
2023-04-16T08:10:17.447Z,23.44
2023-04-16T08:12:45.870Z,23.42
2023-04-16T08:15:14.178Z,23.44
2023-04-16T08:17:42.697Z,23.43
2023-04-16T08:20:13.732Z,23.45
2023-04-16T08:22:43.386Z,23.49
2023-04-16T08:25:12.383Z,23.50
2023-04-16T08:27:40.967Z,23.50
2023-04-16T08:30:09.345Z,23.49
2023-04-16T08:32:38.171Z,23.51
2023-04-16T08:35:07.236Z,23.54
2023-04-16T08:37:35.717Z,23.59
2023-04-16T08:40:04.493Z,23.58
2023-04-16T08:42:40.867Z,23.55
2023-04-16T08:45:15.841Z,23.57
2023-04-16T08:47:48.679Z,23.56
2023-04-16T08:50:19.559Z,23.54
2023-04-16T08:52:58.414Z,23.56
2023-04-16T08:55:50.687Z,23.71
2023-04-16T08:58:20.831Z,23.66
2023-04-16T09:00:49.489Z,23.62
2023-04-16T09:03:20.319Z,23.60
2023-04-16T09:05:49.833Z,24.51
2023-04-16T09:08:18.716Z,24.74
2023-04-16T09:10:47.309Z,24.19
2023-04-16T09:13:17.217Z,23.92
2023-04-16T09:15:46.033Z,23.78
2023-04-16T09:18:14.292Z,23.68
2023-04-16T09:20:42.665Z,23.60
2023-04-16T09:23:11.360Z,23.54
2023-04-16T09:25:40.453Z,23.50
2023-04-16T09:28:10.370Z,23.48
2023-04-16T09:30:38.555Z,23.47
2023-04-16T09:33:13.064Z,23.44
2023-04-16T09:35:49.541Z,23.42
2023-04-16T09:38:18.633Z,23.41
2023-04-16T09:40:50.207Z,23.41
2023-04-16T09:43:19.279Z,23.40
2023-04-16T09:45:54.177Z,23.39
2023-04-16T09:48:32.636Z,23.39
2023-04-16T09:51:02.037Z,23.44
2023-04-16T09:53:31.843Z,23.42
2023-04-16T09:56:01.977Z,23.41
2023-04-16T09:58:30.259Z,23.39
2023-04-16T10:01:02.456Z,23.37
2023-04-16T10:03:32.502Z,23.34
2023-04-16T10:06:20.431Z,23.33
2023-04-16T10:08:50.477Z,23.45
2023-04-16T10:11:20.310Z,23.42
2023-04-16T10:13:48.986Z,23.37
2023-04-16T10:16:18.256Z,23.34
2023-04-16T10:18:47.797Z,23.33
2023-04-16T10:21:16.709Z,23.33
2023-04-16T10:23:45.379Z,23.32
2023-04-16T10:26:13.958Z,23.32
2023-04-16T10:28:42.947Z,23.31
2023-04-16T10:31:12.004Z,23.31
2023-04-16T10:33:41.451Z,23.31
2023-04-16T10:36:17.871Z,23.31
2023-04-16T10:38:51.413Z,23.31
2023-04-16T10:41:23.081Z,23.31
2023-04-16T10:43:51.868Z,23.31
2023-04-16T10:46:30.793Z,23.30
2023-04-16T10:49:04.117Z,23.35
2023-04-16T10:51:37.002Z,23.35
2023-04-16T10:54:08.398Z,23.33
2023-04-16T10:56:37.520Z,23.31
2023-04-16T10:59:09.598Z,23.30
2023-04-16T11:01:42.452Z,23.32
2023-04-16T11:04:19.859Z,23.34
2023-04-16T11:07:09.939Z,23.33
2023-04-16T11:09:45.074Z,23.35
2023-04-16T11:12:41.312Z,23.32
2023-04-16T11:15:11.843Z,23.32
2023-04-16T11:17:41.581Z,23.29
2023-04-16T11:20:19.623Z,23.29
2023-04-16T11:22:50.488Z,23.31
2023-04-16T11:25:30.317Z,23.30
2023-04-16T11:27:59.449Z,23.32
2023-04-16T11:30:36.270Z,23.31
2023-04-16T11:33:11.771Z,23.30
2023-04-16T11:35:41.619Z,23.31
2023-04-16T11:38:09.983Z,23.30
2023-04-16T11:40:38.576Z,23.30
2023-04-16T11:43:15.342Z,23.30
2023-04-16T11:46:02.646Z,23.32
2023-04-16T11:48:48.230Z,23.36
2023-04-16T11:51:16.606Z,23.35
2023-04-16T11:53:49.287Z,23.32
2023-04-16T11:56:26.888Z,23.31
2023-04-16T11:59:18.510Z,23.36
2023-04-16T12:01:51.913Z,23.38
2023-04-16T12:04:22.761Z,23.34
2023-04-16T12:07:07.500Z,23.36
2023-04-16T12:09:42.769Z,23.35
2023-04-16T12:12:32.166Z,23.35
2023-04-16T12:15:04.150Z,23.36
2023-04-16T12:17:34.140Z,23.34
2023-04-16T12:20:20.402Z,23.34
2023-04-16T12:22:49.937Z,23.42
2023-04-16T12:25:18.702Z,23.38
2023-04-16T12:27:53.859Z,23.34
2023-04-16T12:30:24.055Z,23.34
2023-04-16T12:32:57.257Z,23.32
2023-04-16T12:35:31.969Z,23.34
2023-04-16T12:38:01.407Z,23.32
2023-04-16T12:40:30.059Z,23.30
2023-04-16T12:42:58.434Z,23.28
2023-04-16T12:45:27.033Z,23.26
2023-04-16T12:47:56.276Z,23.25
2023-04-16T12:50:24.703Z,23.26
2023-04-16T12:52:53.086Z,23.25
2023-04-16T12:55:21.579Z,23.23
2023-04-16T12:57:52.969Z,23.22
2023-04-16T13:00:22.046Z,23.26
2023-04-16T13:02:50.549Z,23.25
2023-04-16T13:05:19.595Z,23.25
2023-04-16T13:07:48.068Z,23.23
2023-04-16T13:10:16.979Z,23.24
2023-04-16T13:12:46.878Z,23.23
2023-04-16T13:15:15.052Z,23.23
2023-04-16T13:17:43.412Z,23.21
2023-04-16T13:20:12.122Z,23.19
2023-04-16T13:22:40.605Z,23.20
2023-04-16T13:25:09.895Z,23.19
2023-04-16T13:27:38.183Z,23.19
2023-04-16T13:30:09.945Z,23.18
2023-04-16T13:32:38.340Z,23.19
2023-04-16T13:35:07.320Z,23.19
2023-04-16T13:37:35.898Z,23.20
2023-04-16T13:40:04.719Z,23.20
2023-04-16T13:42:32.968Z,23.20
2023-04-16T13:45:01.554Z,23.19
2023-04-16T13:47:30.454Z,23.18
2023-04-16T13:49:58.809Z,23.18
2023-04-16T13:52:27.809Z,23.18
2023-04-16T13:54:58.409Z,23.22
2023-04-16T13:57:34.049Z,23.27
2023-04-16T14:00:03.709Z,23.24
2023-04-16T14:02:32.023Z,23.21
2023-04-16T14:05:00.550Z,23.18
2023-04-16T14:07:29.549Z,23.16
2023-04-16T14:09:57.877Z,23.14
2023-04-16T14:12:26.511Z,23.13
2023-04-16T14:14:55.514Z,23.12
2023-04-16T14:17:23.910Z,23.12
2023-04-16T14:19:52.377Z,23.11
2023-04-16T14:22:20.955Z,23.09
2023-04-16T14:24:49.330Z,23.09
2023-04-16T14:27:17.811Z,23.08
2023-04-16T14:29:47.020Z,23.07
2023-04-16T14:32:15.289Z,23.07
2023-04-16T14:34:43.766Z,23.07
2023-04-16T14:37:12.149Z,23.06
2023-04-16T14:39:40.829Z,23.05
2023-04-16T14:42:09.119Z,23.04
2023-04-16T14:44:38.101Z,23.04
2023-04-16T14:47:06.922Z,23.04
2023-04-16T14:49:35.586Z,23.03
2023-04-16T14:52:05.905Z,23.03
2023-04-16T14:54:34.407Z,23.03
2023-04-16T14:57:02.865Z,23.03
2023-04-16T14:59:32.652Z,23.01
2023-04-16T15:02:01.316Z,23.01
2023-04-16T15:04:30.243Z,22.99
2023-04-16T15:06:59.461Z,22.99
2023-04-16T15:09:28.065Z,22.98
2023-04-16T15:11:57.211Z,22.98
2023-04-16T15:14:25.516Z,22.97
2023-04-16T15:16:54.162Z,22.97
2023-04-16T15:19:22.684Z,22.96
2023-04-16T15:21:51.992Z,22.96
2023-04-16T15:24:20.264Z,22.95
2023-04-16T15:26:48.548Z,22.94
2023-04-16T15:29:17.029Z,22.92
2023-04-16T15:31:45.720Z,22.90
2023-04-16T15:34:13.989Z,22.90
2023-04-16T15:36:42.682Z,22.89
2023-04-16T15:39:11.942Z,22.90
2023-04-16T15:41:53.586Z,22.93
2023-04-16T15:44:28.706Z,23.09
2023-04-16T15:46:59.643Z,23.03
2023-04-16T15:49:28.154Z,22.97
2023-04-16T15:51:56.933Z,22.94
2023-04-16T15:54:25.806Z,22.93
2023-04-16T15:56:54.332Z,22.91
2023-04-16T15:59:22.985Z,22.90
2023-04-16T16:01:51.710Z,22.90
2023-04-16T16:04:23.251Z,22.90
2023-04-16T16:06:52.951Z,22.89
2023-04-16T16:09:27.458Z,22.89
2023-04-16T16:11:56.282Z,22.92
2023-04-16T16:14:24.828Z,22.91
2023-04-16T16:16:53.204Z,22.88
2023-04-16T16:19:21.922Z,22.86
2023-04-16T16:21:50.486Z,22.85
2023-04-16T16:24:19.692Z,22.85
2023-04-16T16:26:48.050Z,22.84
2023-04-16T16:29:16.433Z,22.83
2023-04-16T16:31:45.370Z,22.81
2023-04-16T16:34:20.454Z,22.80
2023-04-16T16:36:49.969Z,22.83
2023-04-16T16:39:18.441Z,22.83
2023-04-16T16:41:47.863Z,22.81
2023-04-16T16:44:16.122Z,22.79
2023-04-16T16:46:44.543Z,22.77
2023-04-16T16:49:13.191Z,22.76
2023-04-16T16:51:41.876Z,22.74
2023-04-16T16:54:10.253Z,22.73
2023-04-16T16:56:38.631Z,22.72
2023-04-16T16:59:09.223Z,22.71
2023-04-16T17:01:37.796Z,22.72
2023-04-16T17:04:06.617Z,22.71
2023-04-16T17:06:35.277Z,22.70
2023-04-16T17:09:04.286Z,22.69
2023-04-16T17:11:32.607Z,22.68
2023-04-16T17:14:01.080Z,22.66
2023-04-16T17:16:29.487Z,22.66
2023-04-16T17:18:59.593Z,22.65
2023-04-16T17:21:28.274Z,22.65
2023-04-16T17:23:58.399Z,22.68
2023-04-16T17:26:26.666Z,22.68
2023-04-16T17:28:57.005Z,22.67
2023-04-16T17:31:27.349Z,22.65
2023-04-16T17:33:55.692Z,22.65
2023-04-16T17:36:24.073Z,22.65
2023-04-16T17:38:52.452Z,22.63
2023-04-16T17:41:21.342Z,22.61
2023-04-16T17:43:50.949Z,22.59
2023-04-16T17:46:19.254Z,22.58
2023-04-16T17:48:49.143Z,22.58
2023-04-16T17:51:17.333Z,22.57
2023-04-16T17:53:45.702Z,22.56
2023-04-16T17:56:14.686Z,22.53
2023-04-16T17:58:43.070Z,22.53
2023-04-16T18:01:11.695Z,22.52
2023-04-16T18:03:40.266Z,22.52
2023-04-16T18:06:11.997Z,22.53
2023-04-16T18:08:42.017Z,22.54
2023-04-16T18:11:10.703Z,22.52
2023-04-16T18:13:38.978Z,22.51
2023-04-16T18:16:15.009Z,22.49
2023-04-16T18:18:44.032Z,22.54
2023-04-16T18:21:13.149Z,22.53
2023-04-16T18:23:41.506Z,22.51
2023-04-16T18:26:11.036Z,22.50
2023-04-16T18:28:39.602Z,22.48
2023-04-16T18:31:08.325Z,22.47
2023-04-16T18:33:54.103Z,22.46
2023-04-16T18:36:27.018Z,22.61
2023-04-16T18:39:02.042Z,22.58
2023-04-16T18:41:31.595Z,22.57
2023-04-16T18:43:59.873Z,22.53
2023-04-16T18:46:28.507Z,22.50
2023-04-16T18:48:56.938Z,22.47
2023-04-16T18:51:25.723Z,22.46
2023-04-16T18:53:54.118Z,22.44
2023-04-16T18:56:22.599Z,22.45
2023-04-16T18:58:50.967Z,22.43
2023-04-16T19:01:19.386Z,22.42
2023-04-16T19:03:47.863Z,22.41
2023-04-16T19:06:16.323Z,22.41
2023-04-16T19:08:44.802Z,22.41
2023-04-16T19:11:13.520Z,22.40
2023-04-16T19:13:41.860Z,22.41
2023-04-16T19:16:11.808Z,22.41
2023-04-16T19:18:40.477Z,22.41
2023-04-16T19:21:11.128Z,22.43
2023-04-16T19:23:39.598Z,22.45
2023-04-16T19:26:08.070Z,22.43
2023-04-16T19:28:39.012Z,22.41
2023-04-16T19:31:07.426Z,22.42
2023-04-16T19:33:36.387Z,22.41
2023-04-16T19:36:05.158Z,22.42
2023-04-16T19:38:33.456Z,22.42
2023-04-16T19:41:01.836Z,22.39
2023-04-16T19:43:31.234Z,22.36
2023-04-16T19:45:59.676Z,22.35
2023-04-16T19:48:28.284Z,22.35
2023-04-16T19:50:56.561Z,22.32
2023-04-16T19:53:25.459Z,22.31
2023-04-16T19:55:53.834Z,22.30
2023-04-16T19:58:22.214Z,22.29
2023-04-16T20:00:50.820Z,22.28
2023-04-16T20:03:19.248Z,22.28
2023-04-16T20:05:50.998Z,22.27
2023-04-16T20:08:19.628Z,22.27
2023-04-16T20:10:47.909Z,22.26
2023-04-16T20:13:18.602Z,22.26
2023-04-16T20:15:47.626Z,22.28
2023-04-16T20:18:15.795Z,22.29
2023-04-16T20:20:44.121Z,22.28
2023-04-16T20:23:12.567Z,22.27
2023-04-16T20:25:44.318Z,22.27
2023-04-16T20:28:14.961Z,22.27
2023-04-16T20:30:43.467Z,22.28
2023-04-16T20:33:12.053Z,22.28
2023-04-16T20:35:40.491Z,22.27
2023-04-16T20:38:09.080Z,22.25
2023-04-16T20:40:39.000Z,22.24
2023-04-16T20:43:10.542Z,22.24
2023-04-16T20:45:41.158Z,22.26
2023-04-16T20:48:10.313Z,22.27
2023-04-16T20:50:38.468Z,22.27
2023-04-16T20:53:06.834Z,22.25
2023-04-16T20:55:35.112Z,22.23
2023-04-16T20:58:03.709Z,22.22
2023-04-16T21:00:31.923Z,22.23
2023-04-16T21:03:00.511Z,22.23
2023-04-16T21:05:30.204Z,22.23
2023-04-16T21:07:58.482Z,22.23
2023-04-16T21:10:26.926Z,22.22
2023-04-16T21:12:55.200Z,22.20
2023-04-16T21:15:23.531Z,22.22
2023-04-16T21:17:52.010Z,22.21
2023-04-16T21:20:20.336Z,22.19
2023-04-16T21:22:48.718Z,22.18
2023-04-16T21:25:17.304Z,22.18
2023-04-16T21:27:45.884Z,22.18
2023-04-16T21:30:14.937Z,22.18
2023-04-16T21:32:43.292Z,22.18
2023-04-16T21:35:11.842Z,22.18
2023-04-16T21:37:40.228Z,22.16
2023-04-16T21:40:09.637Z,22.15
2023-04-16T21:42:40.159Z,22.15
2023-04-16T21:45:11.923Z,22.16
2023-04-16T21:47:40.781Z,22.18
2023-04-16T21:50:09.490Z,22.17
2023-04-16T21:52:41.024Z,22.15
2023-04-16T21:55:10.039Z,22.15
2023-04-16T21:57:38.314Z,22.14
2023-04-16T22:00:14.181Z,22.13
2023-04-16T22:02:43.130Z,22.15
2023-04-16T22:05:11.882Z,22.15
2023-04-16T22:07:40.900Z,22.12
2023-04-16T22:10:09.920Z,22.12
2023-04-16T22:12:38.219Z,22.11
2023-04-16T22:15:08.341Z,22.11
2023-04-16T22:17:37.278Z,22.10
2023-04-16T22:20:07.702Z,22.11
2023-04-16T22:22:36.352Z,22.11
2023-04-16T22:25:05.542Z,22.11
2023-04-16T22:27:34.540Z,22.11
2023-04-16T22:30:04.148Z,22.11
2023-04-16T22:32:33.534Z,22.10
2023-04-16T22:35:02.246Z,22.11
2023-04-16T22:37:30.556Z,22.10
2023-04-16T22:39:58.988Z,22.09
2023-04-16T22:42:27.691Z,22.07
2023-04-16T22:44:56.582Z,22.07
2023-04-16T22:47:24.875Z,22.11
2023-04-16T22:49:54.070Z,22.10
2023-04-16T22:52:22.423Z,22.09
2023-04-16T22:54:51.001Z,22.10
2023-04-16T22:57:23.183Z,22.09
2023-04-16T22:59:53.237Z,22.11
2023-04-16T23:02:21.792Z,22.10
2023-04-16T23:04:50.260Z,22.09
2023-04-16T23:07:18.640Z,22.07
2023-04-16T23:09:48.189Z,22.07
2023-04-16T23:12:16.745Z,22.06
2023-04-16T23:14:46.336Z,22.06
2023-04-16T23:17:14.719Z,22.04
2023-04-16T23:19:43.094Z,22.05
2023-04-16T23:22:11.502Z,22.04
2023-04-16T23:24:39.965Z,22.03
2023-04-16T23:27:08.286Z,22.03
2023-04-16T23:29:36.713Z,22.03
2023-04-16T23:32:05.511Z,22.02
2023-04-16T23:34:33.989Z,22.02
2023-04-16T23:37:02.295Z,22.03
2023-04-16T23:39:30.642Z,22.03
2023-04-16T23:41:59.025Z,22.02
2023-04-16T23:44:27.422Z,22.01
2023-04-16T23:46:55.824Z,22.01
2023-04-16T23:49:24.696Z,22.02
2023-04-16T23:51:52.977Z,22.03
2023-04-16T23:54:21.739Z,22.03
2023-04-16T23:56:50.015Z,22.04
2023-04-16T23:59:18.493Z,22.05
